Longue-Pointe, Canada
Current Conditions -  °F | °C
As of 11:00 AM on Thursday 27 Nov 2014 (Local Time) from CYGV Reporting Station
Light Snow Light Snow  
Wind Chill:   Ceiling: 1600
Heat Index: 19°   Visibility: 1.5mi
Dew Point: 18°   Wind: 18mph
Humidity: 93%   Direction: 20°NNE
Pressure: 29.8"   Gusts: 25mph
Location:  50.27°N, 64.15°W
Report Text: CYGV 271600Z AUTO 02016G22KT 1 1/2SM -SN OVC016 M07/M08 A2980 RMK PRESFR SLP093
Loading
Personal Weather Stations






























Interactive Weather Map New forecast layout! Learn more

10-Day Weather Forecast

Advertisements
Track Severe Weather on mobile